Time;durP1;ratioP1;P1;durP2;ratioP2;P2;SDS_P1;SDS_P2;PMS_P1;PMS_P2;Temp;Humidity;BMP_temperature;BMP_pressure;BME280_temperature;BME280_humidity;BME280_pressure;Samples;Min_cycle;Max_cycle;Signal;HPM_P1;HPM_P2
2021/12/16 00:01:50;;;;;;;22.67;13.90;;;5.10;99.90;;;;;;4877790;29;20783;-76
2021/12/16 00:05:09;;;;;;;20.00;12.70;;;5.20;99.90;;;;;;4877847;29;20419;-76
2021/12/16 00:07:24;;;;;;;19.50;11.40;;;5.10;99.90;;;;;;4877882;29;20534;-76
2021/12/16 00:29:33;;;;;;;16.90;11.73;;;4.90;99.90;;;;;;4881726;29;20803;-77
2021/12/16 00:32:04;;;;;;;18.73;11.50;;;5.00;99.90;;;;;;4880973;29;20527;-77
2021/12/16 00:34:31;;;;;;;18.87;12.03;;;4.90;99.90;;;;;;4881181;29;20434;-77
2021/12/16 00:36:58;;;;;;;18.20;10.67;;;4.90;99.90;;;;;;4881031;29;20418;-76
2021/12/16 00:39:27;;;;;;;15.33;10.60;;;4.80;99.90;;;;;;4880833;29;20787;-76
2021/12/16 00:42:00;;;;;;;17.53;11.40;;;4.80;99.90;;;;;;4880769;29;20534;-76
2021/12/16 00:47:25;;;;;;;21.13;12.20;;;4.80;99.90;;;;;;4881059;29;20834;-76
2021/12/16 00:49:53;;;;;;;18.07;10.50;;;4.90;99.90;;;;;;4880657;29;20426;-76
2021/12/16 00:55:32;;;;;;;16.63;10.47;;;4.90;99.90;;;;;;4880649;29;20800;-77
2021/12/16 00:57:58;;;;;;;17.90;10.80;;;4.90;99.90;;;;;;4880624;29;20396;-77
2021/12/16 05:31:35;;;;;;;21.93;12.63;;;5.10;99.90;;;;;;5504920;23;20961;-71
2021/12/16 05:34:03;;;;;;;24.10;14.63;;;5.10;99.90;;;;;;4898804;29;20783;-73
2021/12/16 05:36:29;;;;;;;21.20;13.13;;;5.10;99.90;;;;;;4899802;29;20448;-73
2021/12/16 05:38:55;;;;;;;19.63;12.63;;;5.10;99.90;;;;;;4899567;29;20393;-70
2021/12/16 05:41:21;;;;;;;18.90;10.80;;;5.10;99.90;;;;;;4898632;29;20194;-72
2021/12/16 05:43:48;;;;;;;19.17;11.20;;;5.10;99.90;;;;;;4899143;29;20971;-72
2021/12/16 05:46:16;;;;;;;15.33;9.97;;;5.20;99.90;;;;;;4895304;29;20760;-72
2021/12/16 05:48:44;;;;;;;15.57;9.87;;;5.20;99.90;;;;;;4899925;29;21012;-72
2021/12/16 05:51:17;;;;;;;19.20;11.70;;;5.20;99.90;;;;;;4899102;29;20991;-72
2021/12/16 05:53:44;;;;;;;14.37;9.73;;;5.20;99.90;;;;;;4899015;29;20400;-72
2021/12/16 05:56:10;;;;;;;17.20;11.13;;;5.10;99.90;;;;;;4898590;29;20393;-71
2021/12/16 05:58:37;;;;;;;16.10;10.40;;;5.10;99.90;;;;;;4898451;29;20429;-71
2021/12/16 06:01:10;;;;;;;17.40;9.70;;;5.10;99.90;;;;;;4898355;29;20439;-72
2021/12/16 06:03:37;;;;;;;19.20;10.53;;;5.20;99.90;;;;;;4896873;29;20458;-72
2021/12/16 06:06:03;;;;;;;19.90;10.10;;;5.20;99.90;;;;;;4898366;29;20880;-72
2021/12/16 06:08:29;;;;;;;16.23;10.47;;;5.20;99.90;;;;;;4897902;29;20434;-72
2021/12/16 06:13:41;;;;;;;18.97;9.80;;;5.30;99.90;;;;;;4898149;29;20665;-72
2021/12/16 06:27:11;;;;;;;16.87;10.30;;;5.20;99.90;;;;;;4898185;29;20470;-72
2021/12/16 06:29:40;;;;;;;14.53;10.23;;;5.20;99.90;;;;;;4896633;29;20928;-72
2021/12/16 06:32:07;;;;;;;18.87;11.13;;;5.30;99.90;;;;;;4896693;29;20511;-72
2021/12/16 06:34:33;;;;;;;17.77;11.43;;;5.30;99.90;;;;;;4896447;29;20429;-72
2021/12/16 06:36:59;;;;;;;19.97;11.03;;;5.30;99.90;;;;;;4897897;29;20444;-72
2021/12/16 06:39:25;;;;;;;16.40;10.47;;;5.30;99.90;;;;;;4897744;29;20396;-72
2021/12/16 06:41:51;;;;;;;16.57;9.53;;;5.30;99.90;;;;;;4898008;29;20197;-72
2021/12/16 06:44:25;;;;;;;15.50;10.10;;;5.30;99.90;;;;;;4897674;29;20472;-72
2021/12/16 06:46:56;;;;;;;17.93;10.80;;;5.30;99.90;;;;;;4896862;29;20229;-72
2021/12/16 06:49:23;;;;;;;16.37;10.70;;;5.30;99.90;;;;;;4897784;29;20904;-72
2021/12/16 06:51:57;;;;;;;17.23;9.53;;;5.20;99.90;;;;;;4897488;29;20454;-73
2021/12/16 06:54:38;;;;;;;14.90;9.50;;;5.20;99.90;;;;;;4898009;29;20422;-72
2021/12/16 06:57:22;;;;;;;18.07;9.50;;;5.30;99.90;;;;;;4897942;29;20402;-72
2021/12/16 06:59:54;;;;;;;16.10;9.67;;;5.30;99.90;;;;;;4898860;29;20376;-72
2021/12/16 07:02:47;;;;;;;17.70;11.10;;;5.30;99.90;;;;;;4898712;29;20472;-72
2021/12/16 07:05:15;;;;;;;19.40;11.73;;;5.40;99.90;;;;;;4896859;29;20869;-74
2021/12/16 07:07:41;;;;;;;19.23;11.97;;;5.30;99.90;;;;;;4898846;29;20393;-73
2021/12/16 07:10:10;;;;;;;21.80;12.57;;;5.40;99.90;;;;;;4896460;29;20439;-75
2021/12/16 07:12:38;;;;;;;22.60;12.27;;;5.40;99.90;;;;;;4897046;29;20506;-75
2021/12/16 07:15:07;;;;;;;19.27;11.10;;;5.40;99.90;;;;;;4897033;29;20450;-75
2021/12/16 07:17:33;;;;;;;20.57;13.07;;;5.40;99.90;;;;;;4895811;29;20507;-75
2021/12/16 07:19:59;;;;;;;22.00;12.57;;;5.40;99.90;;;;;;4895793;29;20431;-75
2021/12/16 07:22:25;;;;;;;19.00;12.10;;;5.40;99.90;;;;;;4893477;29;20465;-75
2021/12/16 07:24:50;;;;;;;23.27;11.27;;;5.40;99.90;;;;;;4895229;29;20817;-74
2021/12/16 07:27:16;;;;;;;20.30;12.07;;;5.50;99.90;;;;;;4898129;29;20202;-75
2021/12/16 07:29:41;;;;;;;19.50;11.87;;;5.50;99.90;;;;;;4896696;29;20563;-74
2021/12/16 07:32:07;;;;;;;19.80;10.97;;;5.50;99.90;;;;;;4895826;29;20222;-75
2021/12/16 07:34:33;;;;;;;19.50;10.90;;;5.50;99.90;;;;;;4899440;29;20187;-75
2021/12/16 07:37:00;;;;;;;19.23;10.70;;;5.50;99.90;;;;;;4895271;29;20947;-74
2021/12/16 07:39:36;;;;;;;17.87;11.17;;;5.50;99.90;;;;;;4897166;29;20722;-75
2021/12/16 07:42:03;;;;;;;23.37;14.27;;;5.50;99.90;;;;;;4897298;29;20587;-75
2021/12/16 07:44:28;;;;;;;16.77;11.17;;;5.50;99.90;;;;;;4897114;29;20442;-75
2021/12/16 07:47:00;;;;;;;21.00;12.00;;;5.50;99.90;;;;;;4896839;29;20530;-73
2021/12/16 07:49:28;;;;;;;22.83;12.43;;;5.40;99.90;;;;;;4896834;29;20192;-73
2021/12/16 07:51:56;;;;;;;19.07;12.07;;;5.50;99.90;;;;;;4895181;29;20446;-73
2021/12/16 07:54:22;;;;;;;21.43;12.13;;;5.50;99.90;;;;;;4896742;29;20446;-73
2021/12/16 07:56:51;;;;;;;22.90;13.73;;;5.50;99.90;;;;;;4896569;29;20514;-73
2021/12/16 07:59:16;;;;;;;21.93;12.13;;;5.50;99.90;;;;;;4896565;29;20440;-73
2021/12/16 08:01:43;;;;;;;17.27;9.90;;;5.50;99.90;;;;;;4896477;29;20859;-73
2021/12/16 08:04:18;;;;;;;19.00;11.50;;;5.50;99.90;;;;;;4895286;29;20267;-73
2021/12/16 08:06:46;;;;;;;18.43;11.80;;;5.50;99.90;;;;;;4896456;29;20837;-73
2021/12/16 08:09:11;;;;;;;18.77;10.90;;;5.60;99.90;;;;;;4895444;29;20495;-73
2021/12/16 08:11:40;;;;;;;19.87;11.60;;;5.60;99.90;;;;;;4896331;29;20429;-73
2021/12/16 08:14:06;;;;;;;18.67;11.53;;;5.60;99.90;;;;;;4895197;29;20207;-73
2021/12/16 08:16:32;;;;;;;19.77;10.90;;;5.60;99.90;;;;;;4896552;29;20416;-72
2021/12/16 08:18:58;;;;;;;21.57;11.67;;;5.60;99.90;;;;;;4896468;29;20941;-75
2021/12/16 08:21:28;;;;;;;19.00;11.37;;;5.60;99.90;;;;;;4896488;29;20610;-75
2021/12/16 08:23:58;;;;;;;16.90;11.07;;;5.70;99.90;;;;;;4896020;29;20465;-75
2021/12/16 08:26:24;;;;;;;20.53;12.20;;;5.60;99.90;;;;;;4892502;29;20444;-75
2021/12/16 08:28:50;;;;;;;22.43;12.70;;;5.70;99.90;;;;;;4894256;29;20490;-74
2021/12/16 08:31:19;;;;;;;17.80;10.93;;;5.70;99.90;;;;;;4892952;29;20959;-75
2021/12/16 08:33:46;;;;;;;22.47;10.87;;;5.70;99.90;;;;;;4894344;29;20656;-74
2021/12/16 08:36:12;;;;;;;20.67;10.93;;;5.70;99.90;;;;;;4897440;29;20640;-75
2021/12/16 08:38:38;;;;;;;23.73;12.00;;;5.80;99.90;;;;;;4897668;29;20454;-75
2021/12/16 08:41:15;;;;;;;23.57;11.23;;;5.80;99.90;;;;;;4897469;29;20454;-75
2021/12/16 08:43:44;;;;;;;20.50;11.73;;;5.80;99.90;;;;;;4895891;29;20974;-75
2021/12/16 08:46:12;;;;;;;23.17;12.00;;;5.80;99.90;;;;;;4896941;29;20447;-75
2021/12/16 08:48:39;;;;;;;18.73;11.47;;;5.90;99.90;;;;;;4897797;29;20448;-75
2021/12/16 08:51:05;;;;;;;21.40;11.13;;;5.90;99.90;;;;;;4897351;29;20444;-75
2021/12/16 08:53:31;;;;;;;20.73;12.07;;;5.90;99.90;;;;;;4897855;29;20448;-75
2021/12/16 08:55:57;;;;;;;19.83;12.43;;;6.00;99.90;;;;;;4896703;29;20505;-74
2021/12/16 08:58:24;;;;;;;19.10;11.83;;;6.00;99.90;;;;;;4896376;29;20207;-75
2021/12/16 09:00:55;;;;;;;20.33;11.87;;;6.00;99.90;;;;;;4897481;29;20210;-75
2021/12/16 09:03:21;;;;;;;18.47;10.43;;;6.10;99.90;;;;;;4897042;29;20997;-75
2021/12/16 09:05:47;;;;;;;27.10;13.20;;;6.10;99.90;;;;;;4897092;29;20426;-75
2021/12/16 09:08:13;;;;;;;18.30;10.97;;;6.10;99.90;;;;;;4897430;29;20199;-75
2021/12/16 09:10:39;;;;;;;17.83;11.57;;;6.10;99.90;;;;;;4897210;29;20216;-74
2021/12/16 09:13:09;;;;;;;20.97;12.40;;;6.20;99.90;;;;;;4895012;29;20206;-74
2021/12/16 09:15:52;;;;;;;17.70;10.40;;;6.20;99.90;;;;;;4895562;29;20448;-75
2021/12/16 09:18:25;;;;;;;17.70;10.80;;;6.30;99.90;;;;;;4896932;29;20459;-74
2021/12/16 09:20:51;;;;;;;15.90;10.20;;;6.30;99.90;;;;;;4897216;29;21984;-74
2021/12/16 09:23:17;;;;;;;16.20;10.77;;;6.20;99.90;;;;;;4896394;29;20575;-74
2021/12/16 09:25:46;;;;;;;18.07;10.70;;;6.30;99.90;;;;;;4897589;29;20478;-75
2021/12/16 09:28:13;;;;;;;15.90;10.00;;;6.30;99.90;;;;;;4896445;29;20198;-74
2021/12/16 09:30:39;;;;;;;15.23;10.53;;;6.40;99.90;;;;;;4896486;29;20953;-75
2021/12/16 09:33:07;;;;;;;16.77;10.50;;;6.40;99.90;;;;;;4896609;29;20881;-75
2021/12/16 09:35:37;;;;;;;19.27;10.20;;;6.40;99.90;;;;;;4897052;29;20458;-75
2021/12/16 09:38:04;;;;;;;21.03;12.17;;;6.50;99.90;;;;;;4896457;29;20431;-75
2021/12/16 09:40:36;;;;;;;21.10;12.07;;;6.50;99.90;;;;;;4896118;29;20495;-75
2021/12/16 09:43:04;;;;;;;22.30;12.50;;;6.50;99.90;;;;;;4896509;29;20838;-75
2021/12/16 09:45:30;;;;;;;20.70;12.23;;;6.60;99.90;;;;;;4895865;29;20507;-75
2021/12/16 09:47:56;;;;;;;22.27;12.80;;;6.60;99.90;;;;;;4876918;29;20536;-75
2021/12/16 09:50:27;;;;;;;22.30;14.13;;;6.70;99.90;;;;;;4885039;29;20432;-75
2021/12/16 09:52:53;;;;;;;34.73;15.83;;;6.70;99.90;;;;;;4888495;29;20219;-75
2021/12/16 09:55:19;;;;;;;30.20;13.83;;;6.70;99.90;;;;;;4895494;29;20432;-75
2021/12/16 09:57:45;;;;;;;27.53;15.53;;;6.70;99.90;;;;;;4895884;29;20898;-74
2021/12/16 10:00:12;;;;;;;27.90;15.23;;;6.70;99.90;;;;;;4896755;29;20913;-75
2021/12/16 10:02:40;;;;;;;24.40;13.87;;;6.60;99.90;;;;;;4897391;29;21027;-74
2021/12/16 10:05:08;;;;;;;20.77;13.13;;;6.60;99.90;;;;;;4897874;29;20799;-74
2021/12/16 10:07:34;;;;;;;27.37;14.53;;;6.60;99.90;;;;;;4898301;29;20427;-75
2021/12/16 10:10:04;;;;;;;23.37;14.03;;;6.60;99.90;;;;;;4898143;29;20852;-74
2021/12/16 10:12:35;;;;;;;24.90;14.20;;;6.60;99.90;;;;;;4898059;29;20443;-75
2021/12/16 10:15:06;;;;;;;26.77;13.33;;;6.60;99.90;;;;;;4898229;29;20431;-75
2021/12/16 10:17:40;;;;;;;25.60;14.40;;;6.60;99.90;;;;;;4898156;29;20415;-75
2021/12/16 10:20:17;;;;;;;21.90;12.50;;;6.60;99.90;;;;;;4896904;29;20438;-75
2021/12/16 10:22:44;;;;;;;26.30;13.97;;;6.60;99.90;;;;;;4896739;29;20528;-75
2021/12/16 10:25:33;;;;;;;26.70;15.53;;;6.70;99.90;;;;;;4897863;29;20854;-74
2021/12/16 10:28:07;;;;;;;25.87;13.57;;;6.70;99.90;;;;;;4896709;29;20419;-75
2021/12/16 10:30:38;;;;;;;23.27;12.93;;;6.80;99.90;;;;;;4897740;29;20437;-75
2021/12/16 10:33:18;;;;;;;28.47;14.33;;;6.70;99.90;;;;;;4897544;29;20477;-75
2021/12/16 10:35:47;;;;;;;21.70;13.10;;;6.70;99.90;;;;;;4896639;29;20428;-74
2021/12/16 10:38:17;;;;;;;24.73;14.13;;;6.70;99.90;;;;;;4897638;29;20426;-74
2021/12/16 10:40:55;;;;;;;25.73;13.33;;;6.80;99.90;;;;;;4897577;29;20536;-75
2021/12/16 10:43:40;;;;;;;23.70;13.17;;;6.80;99.90;;;;;;4897231;29;20467;-75
2021/12/16 10:46:15;;;;;;;33.60;13.17;;;6.70;99.90;;;;;;4897090;29;20423;-75
2021/12/16 10:48:42;;;;;;;25.40;14.50;;;6.80;99.90;;;;;;4897456;29;20514;-75
2021/12/16 10:51:30;;;;;;;30.00;14.30;;;6.90;99.90;;;;;;4896152;29;20493;-75
2021/12/16 10:53:56;;;;;;;26.20;13.93;;;6.90;99.90;;;;;;4894139;29;20433;-75
2021/12/16 10:56:44;;;;;;;28.30;13.90;;;6.80;99.90;;;;;;4896554;29;20424;-75
2021/12/16 10:59:21;;;;;;;27.77;14.40;;;6.80;99.90;;;;;;4893350;29;20617;-75
2021/12/16 11:02:04;;;;;;;29.33;16.30;;;6.80;99.90;;;;;;4897144;29;20436;-74
2021/12/16 11:04:36;;;;;;;27.70;13.50;;;6.80;99.90;;;;;;4897127;29;20557;-74
2021/12/16 11:07:04;;;;;;;25.53;14.37;;;6.80;99.90;;;;;;4897241;29;20413;-74
2021/12/16 11:09:32;;;;;;;26.43;13.77;;;6.80;99.90;;;;;;4897231;29;20428;-74
2021/12/16 11:12:27;;;;;;;33.47;14.00;;;6.80;99.90;;;;;;4897344;29;20447;-74
2021/12/16 11:15:07;;;;;;;28.60;14.80;;;6.80;99.90;;;;;;4894309;29;20440;-74
2021/12/16 11:17:43;;;;;;;32.07;15.60;;;6.80;99.90;;;;;;4897159;29;20423;-74
2021/12/16 11:20:23;;;;;;;27.93;15.03;;;6.70;99.90;;;;;;4897190;29;20910;-74
2021/12/16 11:22:53;;;;;;;28.23;14.80;;;6.70;99.90;;;;;;4896919;29;20479;-74
2021/12/16 11:25:38;;;;;;;29.83;14.97;;;6.80;99.90;;;;;;4896845;29;20416;-74
2021/12/16 11:28:31;;;;;;;28.67;16.20;;;6.80;99.90;;;;;;4897082;29;21006;-74
2021/12/16 11:31:08;;;;;;;25.20;13.93;;;6.80;99.90;;;;;;4895513;29;20463;-74
2021/12/16 11:33:56;;;;;;;28.30;13.73;;;6.80;99.90;;;;;;4896724;29;20439;-74
2021/12/16 11:36:26;;;;;;;28.70;15.40;;;6.90;99.90;;;;;;4897165;29;20576;-74
2021/12/16 11:39:01;;;;;;;27.57;14.47;;;6.90;99.90;;;;;;4897057;29;20418;-74
2021/12/16 11:41:28;;;;;;;24.77;14.47;;;7.00;99.90;;;;;;4895481;29;20915;-74
2021/12/16 11:44:06;;;;;;;27.90;15.00;;;7.00;99.90;;;;;;4896539;29;20586;-74
2021/12/16 11:46:40;;;;;;;28.17;14.20;;;7.00;99.90;;;;;;4896719;29;20415;-74
2021/12/16 11:49:39;;;;;;;31.73;14.10;;;7.10;99.90;;;;;;4897056;29;20425;-74
2021/12/16 11:52:16;;;;;;;27.60;14.83;;;7.10;99.90;;;;;;4896442;29;20537;-74
2021/12/16 11:54:50;;;;;;;23.07;14.17;;;7.10;99.90;;;;;;4895513;29;20960;-74
2021/12/16 11:57:26;;;;;;;40.20;16.00;;;7.00;99.90;;;;;;4896753;29;20425;-74
2021/12/16 12:00:08;;;;;;;25.00;14.20;;;7.00;99.90;;;;;;4896527;29;20480;-74
2021/12/16 12:02:43;;;;;;;26.97;14.20;;;7.00;99.90;;;;;;4896649;29;20986;-74
2021/12/16 12:05:39;;;;;;;29.03;14.40;;;7.00;99.90;;;;;;4896668;29;20925;-74
2021/12/16 12:08:09;;;;;;;28.40;14.57;;;7.00;99.90;;;;;;4898734;29;21032;-74
2021/12/16 12:10:40;;;;;;;25.30;14.60;;;7.00;99.90;;;;;;4900345;29;20440;-74
2021/12/16 12:13:09;;;;;;;22.80;13.70;;;7.10;99.90;;;;;;4899482;29;20429;-74
2021/12/16 12:15:57;;;;;;;30.10;15.33;;;7.10;99.90;;;;;;4900502;29;20504;-75
2021/12/16 12:18:38;;;;;;;27.87;14.67;;;7.10;99.90;;;;;;4896840;29;20936;-74
2021/12/16 12:21:25;;;;;;;29.70;15.60;;;7.20;99.90;;;;;;4900271;29;20527;-75
2021/12/16 12:24:00;;;;;;;25.30;13.87;;;7.20;99.90;;;;;;4900038;29;20473;-75
2021/12/16 12:26:29;;;;;;;28.30;15.17;;;7.30;99.90;;;;;;4898917;29;20442;-75
2021/12/16 12:28:59;;;;;;;27.43;14.13;;;7.40;99.90;;;;;;4900125;29;20403;-75
2021/12/16 12:31:28;;;;;;;22.23;13.03;;;7.40;99.90;;;;;;4899736;29;20462;-74
2021/12/16 12:33:54;;;;;;;20.93;12.80;;;7.50;99.90;;;;;;4898612;29;20742;-75
2021/12/16 12:36:22;;;;;;;28.70;14.90;;;7.40;99.90;;;;;;4898759;29;20443;-75
2021/12/16 12:38:48;;;;;;;23.13;14.10;;;7.40;99.90;;;;;;4898805;29;20431;-75
2021/12/16 12:41:13;;;;;;;21.13;12.47;;;7.50;99.90;;;;;;4898010;29;20836;-75
2021/12/16 12:43:39;;;;;;;24.33;14.03;;;7.50;99.90;;;;;;4898098;29;20688;-75
2021/12/16 12:46:07;;;;;;;28.63;13.70;;;7.60;99.90;;;;;;4898543;29;20448;-75
2021/12/16 12:48:35;;;;;;;25.63;13.63;;;7.60;99.90;;;;;;4898568;29;20238;-75
2021/12/16 12:51:04;;;;;;;31.23;13.50;;;7.60;99.90;;;;;;4897055;29;20453;-74
2021/12/16 12:53:51;;;;;;;24.67;12.60;;;7.60;99.90;;;;;;4898237;29;20420;-74
2021/12/16 12:56:37;;;;;;;20.87;12.27;;;7.70;99.90;;;;;;4898321;29;20433;-75
2021/12/16 12:59:11;;;;;;;23.17;13.07;;;7.80;99.90;;;;;;4898030;29;20502;-75
2021/12/16 13:01:49;;;;;;;20.27;11.80;;;7.90;99.90;;;;;;4893717;29;20993;-75
2021/12/16 13:04:29;;;;;;;22.83;13.83;;;7.90;99.90;;;;;;4897963;29;20471;-75
2021/12/16 13:07:05;;;;;;;22.83;13.43;;;8.00;99.90;;;;;;4895847;29;20983;-75
2021/12/16 13:09:38;;;;;;;26.63;13.40;;;7.90;99.90;;;;;;4896347;29;20422;-75
2021/12/16 13:12:36;;;;;;;21.50;12.43;;;7.90;99.90;;;;;;4897348;29;20530;-75
2021/12/16 13:15:19;;;;;;;22.10;12.30;;;8.00;99.90;;;;;;4896913;29;20486;-75
2021/12/16 13:29:53;;;;;;;19.47;10.87;;;8.00;99.90;;;;;;4878673;29;20513;-75
2021/12/16 13:32:27;;;;;;;20.30;11.57;;;8.00;99.90;;;;;;4842131;29;1095701;-75
2021/12/16 13:37:41;;;;;;;21.53;11.20;;;8.00;99.90;;;;;;4898612;29;20464;-75
2021/12/16 13:40:16;;;;;;;21.23;11.90;;;8.00;99.90;;;;;;4897567;29;20437;-75
2021/12/16 13:43:14;;;;;;;24.83;12.70;;;8.10;99.90;;;;;;4897587;29;20842;-75
2021/12/16 13:45:58;;;;;;;18.37;11.87;;;8.10;99.90;;;;;;4893655;29;20521;-75
2021/12/16 14:10:12;;;;;;;30.23;14.77;;;7.90;99.90;;;;;;4896075;29;20534;-75
2021/12/16 14:42:16;;;;;;;28.73;14.27;;;7.70;99.90;;;;;;4894752;29;20448;-75
2021/12/16 14:50:27;;;;;;;19.70;13.00;;;7.60;99.90;;;;;;4897382;29;20452;-75
2021/12/16 14:52:54;;;;;;;24.40;13.43;;;7.50;99.90;;;;;;4895023;29;20517;-75
2021/12/16 14:55:21;;;;;;;22.87;13.80;;;7.50;99.90;;;;;;4898556;29;20451;-75
2021/12/16 14:57:50;;;;;;;30.07;15.43;;;7.50;99.90;;;;;;4897140;29;20439;-75
2021/12/16 15:00:32;;;;;;;24.80;14.50;;;7.50;99.90;;;;;;4893892;29;20445;-75
2021/12/16 15:03:08;;;;;;;25.77;15.40;;;7.40;99.90;;;;;;4901118;29;20838;-75
2021/12/16 15:05:47;;;;;;;28.50;13.57;;;7.30;99.90;;;;;;4895016;29;20441;-75
2021/12/16 15:08:27;;;;;;;23.97;13.30;;;7.30;99.90;;;;;;4895957;29;20490;-75
2021/12/16 15:10:56;;;;;;;31.90;14.67;;;7.30;99.90;;;;;;4895249;29;20501;-75
2021/12/16 15:16:45;;;;;;;28.93;13.60;;;7.20;99.90;;;;;;4895458;29;20437;-75
2021/12/16 15:39:43;;;;;;;26.13;14.77;;;6.70;99.90;;;;;;4895627;29;20436;-75
2021/12/16 15:42:47;;;;;;;27.70;16.27;;;6.60;99.90;;;;;;4891902;29;20444;-75
2021/12/16 15:44:45;;;;;;;24.27;14.40;;;6.50;99.90;;;;;;4894434;29;21016;-75
2021/12/16 15:47:11;;;;;;;25.70;14.40;;;6.40;99.90;;;;;;4891732;29;20949;-75
2021/12/16 15:49:36;;;;;;;22.00;13.53;;;6.30;99.90;;;;;;4893924;29;20467;-75
2021/12/16 15:52:02;;;;;;;19.70;13.40;;;6.20;99.90;;;;;;4892913;29;20709;-74
2021/12/16 15:54:34;;;;;;;28.43;14.70;;;6.10;99.90;;;;;;4893988;29;20220;-74
2021/12/16 15:57:00;;;;;;;32.53;15.73;;;6.00;99.90;;;;;;4892900;29;20458;-74
2021/12/16 15:59:29;;;;;;;26.00;13.47;;;5.90;99.90;;;;;;4893571;29;20454;-74
2021/12/16 16:01:56;;;;;;;23.70;14.20;;;5.90;99.90;;;;;;4894002;29;20254;-74
2021/12/16 16:04:32;;;;;;;26.20;13.80;;;5.80;99.90;;;;;;4893682;29;20478;-74
2021/12/16 16:07:02;;;;;;;33.97;14.70;;;5.70;99.90;;;;;;4893715;29;20487;-73
2021/12/16 16:09:39;;;;;;;31.90;15.53;;;5.70;99.90;;;;;;4893185;29;20465;-74
2021/12/16 16:12:06;;;;;;;24.13;14.80;;;5.60;99.90;;;;;;4892311;29;20499;-74
2021/12/16 16:14:32;;;;;;;28.13;13.13;;;5.60;99.90;;;;;;4893939;29;20477;-74
2021/12/16 16:17:00;;;;;;;30.67;14.83;;;5.60;99.90;;;;;;4894223;29;20464;-74
2021/12/16 16:19:34;;;;;;;30.53;14.50;;;5.60;99.90;;;;;;4891376;29;20455;-74
2021/12/16 16:22:03;;;;;;;22.10;12.80;;;5.50;99.90;;;;;;4894985;29;20510;-74
2021/12/16 16:24:33;;;;;;;21.33;13.47;;;5.50;99.90;;;;;;4886208;29;20531;-74
2021/12/16 16:27:01;;;;;;;25.40;14.03;;;5.30;99.90;;;;;;4880401;29;20833;-74
2021/12/16 16:29:31;;;;;;;24.27;14.20;;;5.30;99.90;;;;;;4884745;29;20430;-74
2021/12/16 16:31:58;;;;;;;30.33;14.23;;;5.30;99.90;;;;;;4885600;29;20634;-74
2021/12/16 16:34:25;;;;;;;23.07;13.23;;;5.20;99.90;;;;;;4894677;29;20428;-74
2021/12/16 16:36:58;;;;;;;23.90;13.63;;;5.10;99.90;;;;;;4893341;29;20432;-73
2021/12/16 16:39:30;;;;;;;23.00;12.63;;;5.20;99.90;;;;;;4894995;29;20431;-73
2021/12/16 16:42:09;;;;;;;22.80;13.67;;;5.10;99.90;;;;;;4894800;29;20531;-73
2021/12/16 16:44:35;;;;;;;25.13;13.40;;;5.10;99.90;;;;;;4890005;29;20534;-73
2021/12/16 16:47:15;;;;;;;25.90;12.83;;;5.10;99.90;;;;;;4894370;29;20498;-73
2021/12/16 16:49:53;;;;;;;21.23;12.80;;;5.20;99.90;;;;;;4893566;29;20423;-73
2021/12/16 16:52:19;;;;;;;22.40;12.97;;;5.20;99.90;;;;;;4892972;29;20524;-73
2021/12/16 16:54:52;;;;;;;29.40;14.20;;;5.20;99.90;;;;;;4893648;29;20427;-73
2021/12/16 16:57:29;;;;;;;21.30;13.20;;;5.20;99.90;;;;;;4896343;29;20181;-73
2021/12/16 16:59:58;;;;;;;32.90;13.70;;;5.20;99.90;;;;;;4885821;29;20441;-73
2021/12/16 17:02:28;;;;;;;25.90;13.03;;;5.20;99.90;;;;;;4897577;29;20450;-73
2021/12/16 17:04:59;;;;;;;23.43;12.93;;;5.10;99.90;;;;;;4899149;29;20526;-74
2021/12/16 17:07:26;;;;;;;29.23;13.80;;;5.10;99.90;;;;;;4897814;29;20498;-73
2021/12/16 17:09:52;;;;;;;21.53;12.13;;;5.00;99.90;;;;;;4899582;29;20431;-73
2021/12/16 17:12:18;;;;;;;19.27;12.80;;;5.00;99.90;;;;;;4898650;29;20435;-73
2021/12/16 17:14:53;;;;;;;20.80;11.60;;;4.90;99.90;;;;;;4899297;29;20285;-73
2021/12/16 17:17:23;;;;;;;18.50;13.97;;;4.90;99.90;;;;;;4897916;29;20185;-73
2021/12/16 17:20:11;;;;;;;30.10;15.10;;;4.80;99.90;;;;;;4899390;29;20799;-73
2021/12/16 17:22:46;;;;;;;32.07;14.70;;;4.80;99.90;;;;;;4899318;29;20725;-73
2021/12/16 17:25:13;;;;;;;24.70;14.00;;;4.70;99.90;;;;;;4899312;29;20453;-73
2021/12/16 17:27:49;;;;;;;26.33;14.13;;;4.60;99.90;;;;;;4898975;29;20406;-73
2021/12/16 17:30:26;;;;;;;26.50;14.50;;;4.50;99.90;;;;;;4900175;29;21051;-74
2021/12/16 17:32:53;;;;;;;25.60;14.17;;;4.40;99.90;;;;;;4897670;29;20453;-73
2021/12/16 17:35:43;;;;;;;26.80;14.30;;;4.30;99.90;;;;;;4898869;29;20511;-73
2021/12/16 17:38:19;;;;;;;26.40;13.77;;;4.30;99.90;;;;;;4898832;29;20520;-73
2021/12/16 17:40:51;;;;;;;22.83;13.03;;;4.30;99.90;;;;;;4898674;29;20423;-74
2021/12/16 17:43:21;;;;;;;21.80;13.23;;;4.30;99.90;;;;;;4898371;29;20467;-74
2021/12/16 17:45:58;;;;;;;22.73;13.33;;;4.20;99.90;;;;;;4898967;29;20847;-74
2021/12/16 17:48:30;;;;;;;30.50;13.50;;;4.10;99.90;;;;;;4898780;29;20460;-73
2021/12/16 17:51:00;;;;;;;28.00;14.33;;;4.00;99.90;;;;;;4898589;29;20474;-74
2021/12/16 17:53:26;;;;;;;30.57;12.87;;;4.00;99.90;;;;;;4897158;29;20432;-74
2021/12/16 17:55:58;;;;;;;21.27;13.73;;;4.00;99.90;;;;;;4898558;29;20478;-74
2021/12/16 17:58:27;;;;;;;27.13;15.43;;;3.90;99.90;;;;;;4898506;29;20419;-74
2021/12/16 18:00:53;;;;;;;23.30;13.03;;;3.90;99.90;;;;;;4898365;29;20498;-73
2021/12/16 18:03:25;;;;;;;27.20;14.17;;;3.80;99.90;;;;;;4896840;29;20469;-74
2021/12/16 18:05:57;;;;;;;26.00;14.47;;;3.70;99.90;;;;;;4898157;29;20179;-74
2021/12/16 18:08:39;;;;;;;28.50;14.17;;;3.70;99.90;;;;;;4898380;29;20424;-74
2021/12/16 18:11:11;;;;;;;22.83;13.10;;;3.60;99.90;;;;;;4898198;29;20444;-74
2021/12/16 18:13:43;;;;;;;20.60;13.53;;;3.60;99.90;;;;;;4898044;29;20421;-74
2021/12/16 18:16:19;;;;;;;26.37;15.13;;;3.60;99.90;;;;;;4898327;29;20490;-73
2021/12/16 18:18:48;;;;;;;26.47;15.20;;;3.60;99.90;;;;;;4898226;29;20456;-73
2021/12/16 18:21:14;;;;;;;26.13;15.10;;;3.50;99.90;;;;;;4897951;29;20444;-73
2021/12/16 18:23:45;;;;;;;23.33;14.07;;;3.50;99.90;;;;;;4897773;29;20483;-73
2021/12/16 18:26:10;;;;;;;27.20;13.97;;;3.40;99.90;;;;;;4897644;29;20189;-73
2021/12/16 18:28:40;;;;;;;27.70;14.30;;;3.40;99.90;;;;;;4898159;29;20406;-73
2021/12/16 18:31:17;;;;;;;25.03;13.30;;;3.40;99.90;;;;;;4897823;29;20204;-73
2021/12/16 18:33:49;;;;;;;25.07;13.83;;;3.40;99.90;;;;;;4898039;29;20431;-73
2021/12/16 18:36:22;;;;;;;27.17;13.00;;;3.30;99.90;;;;;;4897758;29;20432;-73
2021/12/16 18:38:49;;;;;;;30.40;15.60;;;3.30;99.90;;;;;;4898201;29;20431;-73
2021/12/16 18:41:19;;;;;;;23.63;13.57;;;3.30;99.90;;;;;;4896377;29;20794;-73
2021/12/16 18:43:48;;;;;;;26.03;12.10;;;3.20;99.90;;;;;;4897758;29;20476;-73
2021/12/16 18:46:15;;;;;;;27.10;13.57;;;3.20;99.90;;;;;;4897604;29;20422;-73
2021/12/16 18:48:51;;;;;;;29.13;14.60;;;3.20;99.90;;;;;;4897759;29;20426;-73
2021/12/16 18:51:29;;;;;;;23.97;12.80;;;3.20;99.90;;;;;;4897443;29;20944;-73
2021/12/16 18:56:45;;;;;;;24.97;14.23;;;3.10;99.90;;;;;;4897545;29;20425;-73
2021/12/16 18:59:15;;;;;;;27.93;14.33;;;3.00;99.90;;;;;;4897536;29;20391;-73
2021/12/16 19:01:46;;;;;;;32.40;12.97;;;3.00;99.90;;;;;;4895988;29;20459;-73
2021/12/16 19:04:11;;;;;;;24.33;13.10;;;2.90;99.90;;;;;;4897184;29;20932;-73
2021/12/16 19:06:40;;;;;;;20.40;12.80;;;2.90;99.90;;;;;;4896160;29;20424;-73
2021/12/16 19:09:10;;;;;;;32.13;13.33;;;2.90;99.90;;;;;;4897348;29;20197;-73
2021/12/16 19:11:44;;;;;;;24.90;13.13;;;2.80;99.90;;;;;;4897300;29;20421;-74
2021/12/16 19:14:12;;;;;;;24.43;12.70;;;2.80;99.90;;;;;;4896982;29;20425;-74
2021/12/16 19:16:38;;;;;;;23.93;12.90;;;2.70;99.90;;;;;;4896823;29;20397;-73
2021/12/16 19:19:04;;;;;;;20.13;13.00;;;2.70;99.90;;;;;;4895540;29;20765;-73
2021/12/16 19:21:30;;;;;;;29.17;13.87;;;2.60;99.90;;;;;;4897031;29;20204;-73
2021/12/16 19:23:57;;;;;;;28.77;13.70;;;2.60;99.90;;;;;;4896774;29;20478;-73
2021/12/16 19:26:23;;;;;;;23.30;13.43;;;2.60;99.90;;;;;;4896930;29;20435;-73
2021/12/16 19:28:49;;;;;;;23.43;12.43;;;2.50;99.90;;;;;;4886245;29;20418;-73
2021/12/16 19:31:19;;;;;;;27.43;12.67;;;2.50;99.90;;;;;;4896670;29;20580;-73
2021/12/16 19:33:48;;;;;;;27.60;12.93;;;2.50;99.90;;;;;;4896690;29;20404;-73
2021/12/16 19:36:14;;;;;;;23.27;13.00;;;2.40;99.90;;;;;;4896852;29;20428;-73
2021/12/16 19:38:41;;;;;;;24.10;12.63;;;2.40;99.90;;;;;;4897412;29;20442;-73
2021/12/16 19:41:13;;;;;;;24.53;13.57;;;2.30;99.90;;;;;;4897095;29;20418;-73
2021/12/16 19:43:40;;;;;;;30.23;13.10;;;2.30;99.90;;;;;;4897376;29;20446;-73
2021/12/16 19:46:06;;;;;;;20.73;11.60;;;2.30;99.90;;;;;;4897429;29;20461;-73
2021/12/16 19:48:34;;;;;;;19.17;11.90;;;2.30;99.90;;;;;;4897251;29;20397;-73